createdAt,value
2024-04-30T00:00:46.642Z,3.20
2024-04-30T00:03:14.266Z,2.70
2024-04-30T00:05:46.440Z,2.63
2024-04-30T00:08:16.902Z,3.00
2024-04-30T00:10:46.961Z,2.67
2024-04-30T00:13:14.562Z,2.40
2024-04-30T00:15:44.874Z,2.87
2024-04-30T00:18:12.234Z,2.27
2024-04-30T00:20:42.156Z,2.43
2024-04-30T00:23:09.707Z,2.40
2024-04-30T00:25:42.301Z,2.40
2024-04-30T00:28:09.770Z,2.90
2024-04-30T00:30:40.069Z,2.50
2024-04-30T00:33:07.900Z,2.53
2024-04-30T00:35:37.907Z,2.50
2024-04-30T00:38:05.635Z,2.50
2024-04-30T00:40:35.656Z,2.73
2024-04-30T00:43:05.708Z,2.60
2024-04-30T00:45:35.906Z,2.57
2024-04-30T00:48:05.906Z,2.40
2024-04-30T00:50:37.405Z,2.47
2024-04-30T00:53:05.721Z,2.53
2024-04-30T00:55:35.713Z,2.53
2024-04-30T00:58:06.032Z,2.70
2024-04-30T01:00:36.090Z,2.87
2024-04-30T01:03:04.190Z,2.50
2024-04-30T01:05:34.447Z,2.90
2024-04-30T01:08:03.473Z,2.50
2024-04-30T01:10:33.632Z,2.73
2024-04-30T01:13:02.362Z,2.80
2024-04-30T01:15:35.531Z,2.83
2024-04-30T01:18:02.865Z,3.00
2024-04-30T01:20:37.824Z,2.70
2024-04-30T01:23:07.981Z,3.00
2024-04-30T01:25:37.943Z,2.83
2024-04-30T01:28:06.258Z,3.40
2024-04-30T01:30:36.236Z,3.37
2024-04-30T01:33:04.797Z,3.00
2024-04-30T01:35:35.222Z,2.67
2024-04-30T01:38:02.618Z,3.30
2024-04-30T01:40:35.349Z,3.20
2024-04-30T01:43:02.903Z,3.23
2024-04-30T01:45:32.865Z,3.00
2024-04-30T01:48:00.374Z,3.00
2024-04-30T01:50:30.604Z,3.00
2024-04-30T01:52:58.052Z,3.10
2024-04-30T01:55:28.224Z,2.93
2024-04-30T01:57:58.567Z,2.80
2024-04-30T02:00:28.673Z,3.10
2024-04-30T02:02:56.071Z,3.00
2024-04-30T02:05:26.257Z,2.87
2024-04-30T02:07:53.828Z,2.77
2024-04-30T02:10:23.896Z,2.90
2024-04-30T02:12:51.516Z,2.90
2024-04-30T02:15:24.179Z,2.80
2024-04-30T02:17:51.689Z,2.63
2024-04-30T02:20:22.009Z,2.90
2024-04-30T02:22:49.405Z,2.90
2024-04-30T02:25:19.438Z,2.90
2024-04-30T02:27:47.104Z,3.20
2024-04-30T02:30:40.678Z,3.07
2024-04-30T02:33:35.498Z,3.43
2024-04-30T02:36:08.623Z,3.40
2024-04-30T02:38:38.901Z,3.37
2024-04-30T02:41:09.170Z,3.10
2024-04-30T02:43:39.158Z,3.50
2024-04-30T02:46:07.317Z,3.10
2024-04-30T02:48:40.000Z,3.47
2024-04-30T02:51:07.921Z,3.47
2024-04-30T02:53:38.067Z,3.23
2024-04-30T02:56:05.943Z,2.77
2024-04-30T02:58:36.060Z,2.83
2024-04-30T03:01:03.867Z,2.57
2024-04-30T03:03:34.034Z,3.23
2024-04-30T03:06:05.134Z,3.03
2024-04-30T03:08:35.159Z,2.53
2024-04-30T03:11:02.860Z,2.40
2024-04-30T03:13:33.210Z,2.60
2024-04-30T03:16:00.619Z,2.60
2024-04-30T03:18:30.614Z,2.40
2024-04-30T03:20:58.822Z,2.70
2024-04-30T03:23:31.481Z,2.87
2024-04-30T03:26:00.265Z,2.33
2024-04-30T03:28:30.501Z,2.23
2024-04-30T03:30:59.779Z,2.40
2024-04-30T03:33:30.144Z,2.43
2024-04-30T03:35:57.554Z,2.30
2024-04-30T03:38:27.836Z,2.40
2024-04-30T03:41:00.735Z,2.47
2024-04-30T03:43:31.843Z,2.10
2024-04-30T03:46:02.059Z,2.30
2024-04-30T03:48:32.053Z,2.37
2024-04-30T03:50:59.529Z,2.40
2024-04-30T03:53:29.662Z,2.83
2024-04-30T03:55:59.623Z,2.60
2024-04-30T03:58:29.727Z,2.53
2024-04-30T04:00:57.252Z,2.57
2024-04-30T04:03:27.193Z,2.30
2024-04-30T04:05:54.500Z,2.53
2024-04-30T04:08:24.836Z,2.90
2024-04-30T04:11:07.073Z,2.90
2024-04-30T04:13:55.921Z,2.70
2024-04-30T04:16:26.055Z,2.90
2024-04-30T04:18:56.063Z,3.10
2024-04-30T04:21:24.246Z,2.77
2024-04-30T04:23:54.483Z,2.50
2024-04-30T04:26:21.774Z,2.80
2024-04-30T04:28:54.665Z,2.80
2024-04-30T04:31:24.723Z,3.10
2024-04-30T04:33:52.145Z,2.63
2024-04-30T04:36:22.382Z,2.80
2024-04-30T04:38:49.987Z,2.77
2024-04-30T04:41:19.951Z,2.87
2024-04-30T04:43:47.456Z,2.83
2024-04-30T04:46:20.180Z,3.40
2024-04-30T04:48:47.573Z,3.20
2024-04-30T04:51:20.467Z,2.80
2024-04-30T04:53:47.853Z,3.00
2024-04-30T04:56:20.514Z,3.43
2024-04-30T04:58:48.062Z,3.20
2024-04-30T05:01:21.151Z,3.10
2024-04-30T05:03:48.932Z,3.10
2024-04-30T05:06:18.917Z,3.03
2024-04-30T05:08:46.335Z,3.10
2024-04-30T05:11:17.106Z,3.23
2024-04-30T05:13:44.575Z,3.73
2024-04-30T05:16:18.351Z,3.40
2024-04-30T05:18:48.401Z,3.67
2024-04-30T05:21:18.540Z,3.40
2024-04-30T05:23:46.027Z,3.20
2024-04-30T05:26:15.996Z,3.40
2024-04-30T05:28:46.046Z,3.30
2024-04-30T05:31:16.433Z,3.10
2024-04-30T05:33:44.035Z,2.90
2024-04-30T05:36:16.909Z,2.97
2024-04-30T05:38:44.342Z,2.93
2024-04-30T05:41:14.771Z,2.90
2024-04-30T05:43:45.069Z,2.90
2024-04-30T05:46:15.372Z,2.70
2024-04-30T05:48:45.333Z,2.93
2024-04-30T05:51:15.362Z,2.90
2024-04-30T05:53:45.457Z,2.77
2024-04-30T05:56:12.776Z,3.00
2024-04-30T05:58:42.832Z,2.67
2024-04-30T06:01:10.493Z,2.70
2024-04-30T06:03:40.532Z,2.80
2024-04-30T06:06:10.035Z,2.70
2024-04-30T06:08:42.647Z,2.67
2024-04-30T06:11:10.240Z,2.70
2024-04-30T06:13:41.297Z,2.50
2024-04-30T06:16:08.833Z,2.87
2024-04-30T06:18:38.905Z,2.90
2024-04-30T06:21:06.577Z,2.40
2024-04-30T06:23:37.931Z,2.83
2024-04-30T06:26:07.927Z,3.00
2024-04-30T06:28:37.960Z,2.90
2024-04-30T06:31:05.672Z,3.20
2024-04-30T06:33:35.683Z,3.00
2024-04-30T06:36:03.223Z,3.40
2024-04-30T06:38:33.349Z,3.00
2024-04-30T06:41:00.803Z,3.57
2024-04-30T06:43:33.601Z,3.40
2024-04-30T06:46:01.198Z,3.20
2024-04-30T06:48:31.377Z,3.30
2024-04-30T06:50:58.960Z,3.20
2024-04-30T06:53:29.213Z,3.07
2024-04-30T06:55:56.716Z,3.27
2024-04-30T06:58:26.874Z,3.00
2024-04-30T07:00:57.071Z,2.93
2024-04-30T07:03:27.094Z,3.07
2024-04-30T07:05:54.988Z,3.23
2024-04-30T07:08:25.324Z,3.00
2024-04-30T07:10:52.886Z,3.20
2024-04-30T07:13:23.049Z,3.43
2024-04-30T07:15:50.524Z,3.17
2024-04-30T07:18:23.996Z,3.00
2024-04-30T07:20:51.609Z,3.23
2024-04-30T07:23:21.643Z,3.23
2024-04-30T07:25:49.770Z,3.10
2024-04-30T07:28:19.959Z,3.00
2024-04-30T07:30:47.310Z,2.70
2024-04-30T07:33:17.418Z,2.53
2024-04-30T07:35:48.571Z,2.77
2024-04-30T07:38:18.522Z,2.80
2024-04-30T07:40:45.964Z,2.60
2024-04-30T07:43:16.335Z,2.80
2024-04-30T07:45:43.845Z,2.20
2024-04-30T07:48:14.030Z,2.30
2024-04-30T07:50:41.742Z,2.63
2024-04-30T07:53:14.406Z,2.40
2024-04-30T07:55:44.961Z,2.60
2024-04-30T07:58:12.501Z,2.23
2024-04-30T08:00:43.864Z,2.30
2024-04-30T08:03:11.589Z,1.90
2024-04-30T08:05:43.238Z,2.10
2024-04-30T08:08:14.655Z,2.30
2024-04-30T08:10:45.055Z,2.27
2024-04-30T08:13:12.478Z,2.10
2024-04-30T08:15:42.671Z,2.20
2024-04-30T08:18:11.796Z,2.20
2024-04-30T08:20:41.803Z,2.37
2024-04-30T08:23:09.461Z,2.00
2024-04-30T08:25:42.084Z,2.10
2024-04-30T08:28:09.517Z,2.17
2024-04-30T08:30:39.764Z,2.30
2024-04-30T08:33:07.647Z,1.97
2024-04-30T08:35:37.773Z,1.93
2024-04-30T08:38:08.698Z,1.80
2024-04-30T08:40:41.683Z,1.97
2024-04-30T08:43:11.069Z,1.93
2024-04-30T08:45:42.748Z,2.20
2024-04-30T08:48:12.141Z,1.90
2024-04-30T08:50:43.011Z,2.10
2024-04-30T08:53:13.874Z,1.90
2024-04-30T08:55:44.890Z,2.00
2024-04-30T08:58:15.497Z,2.00
2024-04-30T09:00:42.915Z,2.30
2024-04-30T09:03:13.366Z,2.30
2024-04-30T09:05:44.769Z,1.80
2024-04-30T09:08:16.987Z,2.13
2024-04-30T09:10:50.824Z,2.27
2024-04-30T09:13:21.642Z,1.90
2024-04-30T09:15:59.794Z,2.10
2024-04-30T09:18:29.794Z,2.30
2024-04-30T09:21:07.574Z,2.10
2024-04-30T09:23:42.708Z,2.00
2024-04-30T09:26:15.799Z,2.30
2024-04-30T09:28:44.059Z,2.07
2024-04-30T09:31:14.212Z,1.93
2024-04-30T09:33:44.377Z,2.00
2024-04-30T09:36:13.597Z,2.20
2024-04-30T09:38:46.535Z,2.20
2024-04-30T09:41:17.189Z,2.00
2024-04-30T09:43:47.579Z,2.13
2024-04-30T09:46:19.066Z,2.40
2024-04-30T09:48:50.876Z,5.60
2024-04-30T09:51:22.561Z,3.60
2024-04-30T09:53:53.591Z,2.27
2024-04-30T09:56:28.180Z,4.40
2024-04-30T09:58:56.358Z,1.63
2024-04-30T10:01:28.491Z,1.63
2024-04-30T10:03:57.466Z,1.70
2024-04-30T10:06:28.354Z,1.47
2024-04-30T10:08:56.022Z,1.90
2024-04-30T10:11:28.885Z,1.80
2024-04-30T10:13:57.027Z,1.40
2024-04-30T10:16:27.085Z,1.30
2024-04-30T10:19:04.664Z,1.60
2024-04-30T10:21:38.502Z,1.53
2024-04-30T10:24:19.434Z,1.40
2024-04-30T10:26:53.445Z,1.37
2024-04-30T10:29:20.892Z,1.20
2024-04-30T10:31:50.962Z,1.33
2024-04-30T10:34:19.963Z,1.17
2024-04-30T10:36:52.746Z,1.30
2024-04-30T10:39:27.083Z,1.33
2024-04-30T10:42:00.168Z,1.33
2024-04-30T10:44:27.615Z,1.17
2024-04-30T10:47:00.284Z,1.20
2024-04-30T10:49:27.804Z,1.47
2024-04-30T10:51:57.906Z,1.90
2024-04-30T10:54:25.426Z,1.40
2024-04-30T10:56:55.559Z,1.80
2024-04-30T10:59:34.779Z,1.70
2024-04-30T11:02:04.944Z,1.57
2024-04-30T11:04:32.975Z,1.40
2024-04-30T11:07:03.506Z,1.60
2024-04-30T11:09:40.326Z,1.67
2024-04-30T11:12:10.525Z,1.80
2024-04-30T11:14:49.020Z,1.60
2024-04-30T11:17:18.301Z,1.60
2024-04-30T11:19:48.907Z,1.50
2024-04-30T11:22:16.655Z,1.57
2024-04-30T11:24:46.782Z,1.67
2024-04-30T11:27:14.133Z,1.63
2024-04-30T11:29:47.496Z,1.77
2024-04-30T11:32:15.592Z,1.90
2024-04-30T11:34:49.781Z,1.60
2024-04-30T11:37:17.321Z,1.60
2024-04-30T11:39:47.330Z,1.80
2024-04-30T11:42:21.049Z,1.97
2024-04-30T11:44:57.668Z,1.70
2024-04-30T11:47:25.413Z,1.60
2024-04-30T11:49:55.564Z,1.80
2024-04-30T11:52:22.963Z,1.80
2024-04-30T11:54:53.251Z,1.70
2024-04-30T11:57:20.600Z,1.70
2024-04-30T11:59:54.723Z,1.77
2024-04-30T12:02:27.416Z,1.93
2024-04-30T12:04:54.994Z,1.87
2024-04-30T12:07:25.363Z,2.00
2024-04-30T12:09:52.769Z,1.87
2024-04-30T12:12:22.768Z,2.17
2024-04-30T12:14:50.478Z,1.70
2024-04-30T12:17:20.687Z,1.90
2024-04-30T12:19:50.857Z,1.83
2024-04-30T12:22:21.090Z,1.83
2024-04-30T12:24:50.198Z,1.90
2024-04-30T12:27:20.154Z,1.57
2024-04-30T12:29:48.405Z,2.00
2024-04-30T12:32:18.508Z,1.50
2024-04-30T12:34:45.968Z,1.97
2024-04-30T12:37:20.620Z,1.97
2024-04-30T12:39:48.006Z,1.83
2024-04-30T12:42:18.039Z,1.80
2024-04-30T12:44:48.258Z,1.70
2024-04-30T12:47:15.778Z,1.90
2024-04-30T12:49:45.833Z,1.57
2024-04-30T12:52:16.220Z,1.93
2024-04-30T12:54:46.208Z,1.87
2024-04-30T12:57:13.734Z,1.97
2024-04-30T12:59:44.955Z,1.60
2024-04-30T13:02:12.418Z,1.50
2024-04-30T13:04:42.508Z,1.80
2024-04-30T13:07:10.326Z,1.87
2024-04-30T13:09:42.930Z,1.90
2024-04-30T13:12:10.270Z,1.57
2024-04-30T13:14:40.435Z,2.10
2024-04-30T13:17:07.876Z,1.87
2024-04-30T13:19:38.531Z,2.17
2024-04-30T13:22:06.248Z,2.00
2024-04-30T13:24:36.316Z,2.37
2024-04-30T13:27:09.609Z,2.00
2024-04-30T13:29:38.382Z,2.20
2024-04-30T13:32:09.426Z,2.37
2024-04-30T13:34:37.143Z,2.20
2024-04-30T13:37:07.658Z,2.07
2024-04-30T13:39:35.154Z,2.40
2024-04-30T13:42:05.210Z,1.97
2024-04-30T13:44:35.277Z,2.73
2024-04-30T13:47:05.487Z,2.20
2024-04-30T13:49:32.961Z,2.20
2024-04-30T13:52:03.086Z,2.17
2024-04-30T13:54:30.557Z,2.43
2024-04-30T13:57:02.004Z,2.27
2024-04-30T13:59:29.419Z,2.43
2024-04-30T14:02:02.725Z,2.60
2024-04-30T14:04:30.555Z,2.13
2024-04-30T14:07:00.533Z,2.50
2024-04-30T14:09:32.335Z,2.37
2024-04-30T14:12:02.715Z,2.07
2024-04-30T14:14:30.277Z,2.37
2024-04-30T14:17:03.072Z,3.00
2024-04-30T14:19:33.787Z,2.60
2024-04-30T14:22:04.958Z,2.67
2024-04-30T14:24:32.312Z,2.80
2024-04-30T14:27:02.310Z,2.37
2024-04-30T14:29:32.529Z,2.63
2024-04-30T14:32:02.667Z,2.40
2024-04-30T14:34:32.938Z,2.80
2024-04-30T14:37:00.921Z,2.23
2024-04-30T14:39:30.924Z,2.70
2024-04-30T14:42:00.260Z,2.43
2024-04-30T14:44:31.444Z,2.80
2024-04-30T14:47:01.480Z,2.90
2024-04-30T14:49:31.607Z,2.60
2024-04-30T14:51:59.007Z,2.50
2024-04-30T14:54:29.055Z,2.60
2024-04-30T14:56:56.619Z,2.73
2024-04-30T14:59:26.732Z,2.40
2024-04-30T15:01:54.236Z,2.50
2024-04-30T15:04:27.269Z,2.70
2024-04-30T15:06:54.947Z,2.40
2024-04-30T15:09:25.009Z,2.77
2024-04-30T15:11:52.452Z,2.57
2024-04-30T15:14:22.855Z,2.83
2024-04-30T15:16:54.396Z,2.13
2024-04-30T15:19:31.127Z,3.10
2024-04-30T15:22:02.763Z,2.70
2024-04-30T15:24:32.721Z,2.63
2024-04-30T15:27:00.170Z,3.10
2024-04-30T15:29:30.215Z,2.60
2024-04-30T15:31:57.711Z,2.63
2024-04-30T15:34:30.382Z,3.00
2024-04-30T15:36:58.335Z,3.33
2024-04-30T15:39:28.991Z,3.07
2024-04-30T15:41:56.933Z,3.07
2024-04-30T15:44:27.205Z,3.10
2024-04-30T15:46:54.657Z,2.73
2024-04-30T15:49:24.764Z,3.30
2024-04-30T15:51:54.966Z,2.93
2024-04-30T15:54:25.279Z,2.90
2024-04-30T15:56:58.352Z,2.87
2024-04-30T15:59:35.779Z,2.73
2024-04-30T16:02:03.509Z,3.27
2024-04-30T16:04:38.471Z,3.50
2024-04-30T16:07:20.272Z,3.20
2024-04-30T16:09:50.529Z,3.00
2024-04-30T16:12:17.980Z,3.20
2024-04-30T16:14:48.248Z,3.20
2024-04-30T16:17:16.005Z,2.90
2024-04-30T16:19:46.508Z,3.07
2024-04-30T16:22:16.957Z,3.33
2024-04-30T16:24:47.539Z,3.00
2024-04-30T16:27:15.017Z,2.90
2024-04-30T16:29:45.271Z,3.10
2024-04-30T16:32:15.392Z,2.80
2024-04-30T16:34:42.768Z,2.87
2024-04-30T16:37:13.064Z,3.03
2024-04-30T16:39:43.225Z,3.30
2024-04-30T16:42:14.750Z,4.30
2024-04-30T16:44:45.284Z,3.63
2024-04-30T16:47:18.748Z,3.97
2024-04-30T16:49:46.175Z,4.07
2024-04-30T16:52:16.267Z,3.70
2024-04-30T16:54:46.507Z,4.70
2024-04-30T16:57:16.578Z,4.20
2024-04-30T16:59:43.940Z,4.03
2024-04-30T17:02:14.331Z,4.27
2024-04-30T17:04:41.847Z,4.30
2024-04-30T17:07:11.879Z,4.30
2024-04-30T17:09:42.160Z,4.07
2024-04-30T17:12:12.231Z,3.90
2024-04-30T17:14:43.900Z,3.73
2024-04-30T17:17:11.238Z,3.57
2024-04-30T17:19:41.153Z,3.60
2024-04-30T17:22:08.640Z,3.47
2024-04-30T17:24:38.782Z,3.87
2024-04-30T17:27:06.176Z,3.50
2024-04-30T17:29:38.924Z,3.67
2024-04-30T17:32:06.928Z,3.23
2024-04-30T17:34:37.099Z,3.10
2024-04-30T17:37:05.351Z,3.37
2024-04-30T17:39:35.586Z,3.60
2024-04-30T17:42:03.553Z,3.57
2024-04-30T17:44:33.892Z,3.70
2024-04-30T17:47:04.229Z,3.97
2024-04-30T17:49:34.229Z,3.57
2024-04-30T17:52:01.834Z,3.67
2024-04-30T17:54:31.896Z,4.23
2024-04-30T17:56:59.330Z,3.70
2024-04-30T17:59:29.759Z,4.13
2024-04-30T18:01:57.256Z,3.70
2024-04-30T18:04:30.054Z,3.57
2024-04-30T18:06:57.757Z,3.53
2024-04-30T18:09:27.818Z,4.10
2024-04-30T18:11:55.264Z,3.67
2024-04-30T18:14:25.502Z,4.00
2024-04-30T18:16:53.174Z,4.10
2024-04-30T18:19:23.219Z,4.00
2024-04-30T18:21:53.537Z,4.07
2024-04-30T18:24:23.682Z,3.97
2024-04-30T18:26:51.112Z,4.07
2024-04-30T18:29:21.272Z,3.83
2024-04-30T18:31:52.206Z,4.33
2024-04-30T18:34:22.573Z,3.90
2024-04-30T18:36:52.971Z,3.80
2024-04-30T18:39:23.009Z,3.97
2024-04-30T18:41:50.638Z,3.80
2024-04-30T18:44:20.579Z,3.70
2024-04-30T18:46:47.940Z,3.90
2024-04-30T18:49:18.366Z,4.10
2024-04-30T18:51:45.956Z,4.27
2024-04-30T18:54:18.770Z,3.77
2024-04-30T18:56:47.984Z,3.83
2024-04-30T18:59:19.318Z,4.27
2024-04-30T19:01:50.284Z,4.00
2024-04-30T19:04:17.740Z,3.77
2024-04-30T19:06:47.855Z,4.47
2024-04-30T19:09:17.986Z,6.40
2024-04-30T19:11:48.168Z,5.23
2024-04-30T19:14:18.594Z,5.43
2024-04-30T19:16:48.686Z,5.60
2024-04-30T19:19:18.061Z,5.33
2024-04-30T19:21:50.367Z,5.07
2024-04-30T19:24:20.762Z,6.10
2024-04-30T19:26:50.873Z,5.73
2024-04-30T19:29:18.424Z,5.60
2024-04-30T19:31:48.392Z,5.93
2024-04-30T19:34:18.254Z,5.77
2024-04-30T19:36:48.392Z,5.87
2024-04-30T19:39:15.872Z,5.20
2024-04-30T19:41:48.577Z,5.63
2024-04-30T19:44:16.115Z,6.03
2024-04-30T19:46:46.152Z,6.53
2024-04-30T19:49:15.259Z,6.23
2024-04-30T19:51:45.736Z,7.00
2024-04-30T19:54:13.088Z,7.20
2024-04-30T19:56:43.108Z,7.03
2024-04-30T19:59:15.280Z,7.50
2024-04-30T20:01:45.443Z,6.30
2024-04-30T20:04:12.965Z,6.30
2024-04-30T20:06:45.186Z,6.30
2024-04-30T20:09:20.463Z,6.13
2024-04-30T20:11:53.727Z,6.13
2024-04-30T20:14:24.292Z,5.90
2024-04-30T20:16:55.292Z,5.73
2024-04-30T20:19:23.807Z,6.00
2024-04-30T20:21:54.214Z,6.03
2024-04-30T20:24:24.678Z,6.30
2024-04-30T20:26:55.159Z,6.37
2024-04-30T20:29:25.354Z,6.37
2024-04-30T20:31:55.318Z,5.97
2024-04-30T20:34:22.792Z,6.67
2024-04-30T20:36:52.924Z,6.13
2024-04-30T20:39:20.432Z,6.00
2024-04-30T20:41:50.480Z,5.83
2024-04-30T20:44:17.926Z,5.73
2024-04-30T20:46:50.482Z,6.47
2024-04-30T20:49:17.910Z,6.93
2024-04-30T20:51:48.342Z,6.60
2024-04-30T20:54:15.825Z,6.60
2024-04-30T20:56:45.871Z,6.00
2024-04-30T20:59:16.193Z,6.30
2024-04-30T21:01:43.980Z,6.40
2024-04-30T21:04:16.858Z,6.50
2024-04-30T21:06:44.418Z,6.20
2024-04-30T21:09:17.836Z,6.67
2024-04-30T21:11:48.950Z,6.50
2024-04-30T21:14:16.320Z,6.17
2024-04-30T21:16:46.361Z,6.37
2024-04-30T21:19:16.652Z,6.20
2024-04-30T21:21:46.775Z,6.40
2024-04-30T21:24:14.296Z,6.30
2024-04-30T21:26:44.742Z,5.97
2024-04-30T21:29:15.417Z,5.90
2024-04-30T21:31:45.429Z,5.37
2024-04-30T21:34:16.091Z,5.63
2024-04-30T21:36:47.001Z,5.27
2024-04-30T21:39:14.793Z,5.10
2024-04-30T21:41:44.846Z,6.40
2024-04-30T21:44:12.336Z,5.30
2024-04-30T21:46:43.655Z,5.70
2024-04-30T21:49:12.607Z,5.50
2024-04-30T21:51:46.775Z,5.67
2024-04-30T21:54:15.096Z,5.13
2024-04-30T21:56:45.184Z,5.43
2024-04-30T21:59:12.825Z,5.40
2024-04-30T22:01:49.257Z,5.10
2024-04-30T22:04:17.150Z,4.80
2024-04-30T22:06:50.013Z,4.90
2024-04-30T22:09:17.582Z,5.07
2024-04-30T22:11:47.688Z,4.23
2024-04-30T22:14:15.416Z,4.27
2024-04-30T22:16:45.759Z,3.97
2024-04-30T22:19:16.633Z,4.57
2024-04-30T22:21:47.636Z,4.50
2024-04-30T22:24:17.860Z,4.37
2024-04-30T22:26:45.446Z,4.97
2024-04-30T22:29:16.004Z,4.60
2024-04-30T22:31:43.488Z,4.90
2024-04-30T22:34:18.956Z,4.77
2024-04-30T22:36:49.237Z,5.07
2024-04-30T22:39:24.147Z,5.60
2024-04-30T22:41:54.727Z,4.90
2024-04-30T22:44:22.636Z,5.57
2024-04-30T22:46:55.218Z,5.83
2024-04-30T22:49:22.858Z,5.27
2024-04-30T22:51:55.771Z,5.70
2024-04-30T22:54:25.819Z,6.57
2024-04-30T22:56:55.891Z,6.07
2024-04-30T22:59:23.371Z,6.93
2024-04-30T23:01:53.738Z,6.27
2024-04-30T23:04:23.961Z,6.50
2024-04-30T23:06:54.505Z,6.40
2024-04-30T23:09:24.554Z,6.17
2024-04-30T23:11:51.891Z,6.60
2024-04-30T23:14:22.123Z,6.30
2024-04-30T23:16:49.852Z,6.57
2024-04-30T23:19:20.005Z,6.70
2024-04-30T23:21:47.931Z,7.50
2024-04-30T23:24:20.591Z,7.60
2024-04-30T23:26:48.338Z,7.33
2024-04-30T23:29:23.757Z,7.70
2024-04-30T23:31:51.535Z,7.77
2024-04-30T23:34:21.652Z,7.60
2024-04-30T23:36:49.001Z,7.40
2024-04-30T23:39:21.887Z,7.57
2024-04-30T23:41:49.735Z,8.17
2024-04-30T23:44:19.668Z,7.50
2024-04-30T23:46:47.252Z,8.60
2024-04-30T23:49:17.341Z,8.63
2024-04-30T23:51:48.485Z,7.97
2024-04-30T23:54:18.504Z,7.70
2024-04-30T23:56:48.405Z,8.03
2024-04-30T23:59:15.935Z,7.63
